createdAt,value
2022-10-04T00:00:26.809Z,1.50
2022-10-04T00:03:31.135Z,1.60
2022-10-04T00:06:32.832Z,1.50
2022-10-04T00:09:36.064Z,1.60
2022-10-04T00:12:46.443Z,1.50
2022-10-04T00:15:49.330Z,1.50
2022-10-04T00:18:59.896Z,1.63
2022-10-04T00:22:07.481Z,1.80
2022-10-04T00:25:13.689Z,1.73
2022-10-04T00:28:21.424Z,1.70
2022-10-04T00:31:24.865Z,1.47
2022-10-04T00:34:30.383Z,1.63
2022-10-04T00:37:51.951Z,1.60
2022-10-04T00:41:05.709Z,1.40
2022-10-04T00:44:10.488Z,1.63
2022-10-04T00:47:22.055Z,1.43
2022-10-04T00:50:41.764Z,1.50
2022-10-04T00:53:54.759Z,1.50
2022-10-04T00:56:57.936Z,1.37
2022-10-04T01:00:04.346Z,1.73
2022-10-04T01:03:12.486Z,1.70
2022-10-04T01:06:15.233Z,1.30
2022-10-04T01:09:17.283Z,1.57
2022-10-04T01:12:32.100Z,1.40
2022-10-04T01:15:42.909Z,1.50
2022-10-04T01:18:44.688Z,1.60
2022-10-04T01:21:47.149Z,1.30
2022-10-04T01:24:48.880Z,1.63
2022-10-04T01:27:50.645Z,1.50
2022-10-04T01:30:53.085Z,1.57
2022-10-04T01:33:55.213Z,1.50
2022-10-04T01:36:59.326Z,1.30
2022-10-04T01:40:01.061Z,1.60
2022-10-04T01:43:05.948Z,1.60
2022-10-04T01:46:13.231Z,1.30
2022-10-04T01:49:17.776Z,1.67
2022-10-04T01:52:26.257Z,1.30
2022-10-04T01:55:34.367Z,1.40
2022-10-04T01:58:41.570Z,1.30
2022-10-04T02:01:55.306Z,1.33
2022-10-04T02:04:58.220Z,1.30
2022-10-04T02:08:04.719Z,1.60
2022-10-04T02:11:06.734Z,1.43
2022-10-04T02:14:15.783Z,1.50
2022-10-04T02:17:18.247Z,1.40
2022-10-04T02:20:21.683Z,1.47
2022-10-04T02:23:24.420Z,1.43
2022-10-04T02:26:27.131Z,1.40
2022-10-04T02:29:28.779Z,1.80
2022-10-04T02:32:49.867Z,1.40
2022-10-04T02:35:51.538Z,1.57
2022-10-04T02:38:56.247Z,1.20
2022-10-04T02:42:18.072Z,1.60
2022-10-04T02:45:24.748Z,1.53
2022-10-04T02:48:44.561Z,1.37
2022-10-04T02:51:59.610Z,1.50
2022-10-04T02:55:12.101Z,1.40
2022-10-04T02:58:15.117Z,1.60
2022-10-04T03:01:27.605Z,1.83
2022-10-04T03:04:33.706Z,1.60
2022-10-04T03:07:36.093Z,1.60
2022-10-04T03:10:38.024Z,1.80
2022-10-04T03:13:41.674Z,1.63
2022-10-04T03:16:44.651Z,1.80
2022-10-04T03:19:48.679Z,1.47
2022-10-04T03:22:53.366Z,1.63
2022-10-04T03:26:01.461Z,1.80
2022-10-04T03:29:05.830Z,1.83
2022-10-04T03:32:07.920Z,2.10
2022-10-04T03:35:19.842Z,1.90
2022-10-04T03:38:23.027Z,1.67
2022-10-04T03:41:26.079Z,1.60
2022-10-04T03:44:27.675Z,2.00
2022-10-04T03:47:41.040Z,1.70
2022-10-04T03:50:47.323Z,1.67
2022-10-04T03:53:57.393Z,4.20
2022-10-04T03:56:59.436Z,2.53
2022-10-04T04:00:01.744Z,4.03
2022-10-04T04:03:05.818Z,2.53
2022-10-04T04:06:12.789Z,2.07
2022-10-04T04:09:19.493Z,1.90
2022-10-04T04:12:25.990Z,2.00
2022-10-04T04:15:31.497Z,2.27
2022-10-04T04:18:34.722Z,2.00
2022-10-04T04:21:36.510Z,2.10
2022-10-04T04:24:38.303Z,2.30
2022-10-04T04:27:42.102Z,2.10
2022-10-04T04:30:45.251Z,1.93
2022-10-04T04:33:49.616Z,2.40
2022-10-04T04:36:52.543Z,2.63
2022-10-04T04:39:57.902Z,2.03
2022-10-04T04:43:01.465Z,2.37
2022-10-04T04:46:26.798Z,4.07
2022-10-04T04:49:31.329Z,2.60
2022-10-04T04:52:33.901Z,2.57
2022-10-04T04:56:11.097Z,2.43
2022-10-04T04:59:13.812Z,2.30
2022-10-04T05:02:32.500Z,3.40
2022-10-04T05:05:37.232Z,2.33
2022-10-04T05:08:41.564Z,2.40
2022-10-04T05:11:43.619Z,2.63
2022-10-04T05:14:47.431Z,2.27
2022-10-04T05:17:49.059Z,2.30
2022-10-04T05:20:53.082Z,2.27
2022-10-04T05:23:57.543Z,2.20
2022-10-04T05:27:00.874Z,2.87
2022-10-04T05:30:13.551Z,2.23
2022-10-04T05:33:22.177Z,2.27
2022-10-04T05:36:42.399Z,2.07
2022-10-04T05:39:49.443Z,1.97
2022-10-04T05:42:51.471Z,2.13
2022-10-04T05:46:12.024Z,2.20
2022-10-04T05:49:19.094Z,2.23
2022-10-04T05:52:38.549Z,1.90
2022-10-04T05:55:58.315Z,2.20
2022-10-04T05:59:12.112Z,3.00
2022-10-04T06:02:14.313Z,2.10
2022-10-04T06:05:15.962Z,2.67
2022-10-04T06:08:23.744Z,8.60
2022-10-04T06:11:44.519Z,7.07
2022-10-04T06:14:58.640Z,2.00
2022-10-04T06:18:00.253Z,2.40
2022-10-04T06:21:19.610Z,1.90
2022-10-04T06:24:27.082Z,2.47
2022-10-04T06:27:36.998Z,2.00
2022-10-04T06:31:01.713Z,2.17
2022-10-04T06:34:21.936Z,2.50
2022-10-04T06:37:42.608Z,2.40
2022-10-04T06:40:47.342Z,1.90
2022-10-04T06:44:07.862Z,2.10
2022-10-04T06:47:27.758Z,2.13
2022-10-04T06:50:33.723Z,2.00
2022-10-04T06:53:38.371Z,2.00
2022-10-04T06:56:53.558Z,2.13
2022-10-04T07:00:10.349Z,2.17
2022-10-04T07:03:14.705Z,2.00
2022-10-04T07:06:21.647Z,1.60
2022-10-04T07:09:26.330Z,2.03
2022-10-04T07:12:29.177Z,1.20
2022-10-04T07:15:34.111Z,1.70
2022-10-04T07:18:39.975Z,1.63
2022-10-04T07:21:47.079Z,1.70
2022-10-04T07:24:56.747Z,1.80
2022-10-04T07:28:17.043Z,2.13
2022-10-04T07:31:25.535Z,1.70
2022-10-04T07:34:28.884Z,1.73
2022-10-04T07:37:32.850Z,2.17
2022-10-04T07:40:38.989Z,2.00
2022-10-04T07:43:58.244Z,1.87
2022-10-04T07:46:59.843Z,1.70
2022-10-04T07:50:12.446Z,2.10
2022-10-04T07:53:21.131Z,3.00
2022-10-04T07:56:41.258Z,2.90
2022-10-04T07:59:59.873Z,1.80
2022-10-04T08:03:25.190Z,1.83
2022-10-04T08:06:33.118Z,1.80
2022-10-04T08:09:43.994Z,3.20
2022-10-04T08:13:03.231Z,2.73
2022-10-04T08:16:13.836Z,2.30
2022-10-04T08:19:15.432Z,2.73
2022-10-04T08:22:17.037Z,1.60
2022-10-04T08:25:22.997Z,1.63
2022-10-04T08:29:20.740Z,1.60
2022-10-04T08:32:41.547Z,1.80
2022-10-04T08:35:48.950Z,1.60
2022-10-04T08:38:54.909Z,1.60
2022-10-04T08:42:05.694Z,1.90
2022-10-04T08:45:20.812Z,1.80
2022-10-04T08:48:24.778Z,1.53
2022-10-04T08:51:51.939Z,2.33
2022-10-04T08:55:12.530Z,2.13
2022-10-04T08:58:23.824Z,1.87
2022-10-04T09:01:25.560Z,2.00
2022-10-04T09:04:30.276Z,1.73
2022-10-04T09:07:44.194Z,2.10
2022-10-04T09:10:49.102Z,2.40
2022-10-04T09:14:06.019Z,2.30
2022-10-04T09:17:22.302Z,2.60
2022-10-04T09:20:38.925Z,2.60
2022-10-04T09:23:41.230Z,2.80
2022-10-04T09:26:48.546Z,1.80
2022-10-04T09:30:32.342Z,3.07
2022-10-04T09:33:52.287Z,2.10
2022-10-04T09:37:01.164Z,3.60
2022-10-04T09:40:22.080Z,3.27
2022-10-04T09:43:35.910Z,2.20
2022-10-04T09:46:56.773Z,2.30
2022-10-04T09:50:18.798Z,1.90
2022-10-04T09:53:37.241Z,1.90
2022-10-04T09:56:45.319Z,2.00
2022-10-04T09:59:57.214Z,1.90
2022-10-04T10:03:05.829Z,1.70
2022-10-04T10:06:13.706Z,1.70
2022-10-04T10:09:18.600Z,2.30
2022-10-04T10:12:46.482Z,2.20
2022-10-04T10:15:48.151Z,2.33
2022-10-04T10:19:13.023Z,2.10
2022-10-04T10:22:14.587Z,1.77
2022-10-04T10:25:21.852Z,1.60
2022-10-04T10:28:26.515Z,1.50
2022-10-04T10:31:34.413Z,2.13
2022-10-04T10:34:56.151Z,2.10
2022-10-04T10:38:08.722Z,1.40
2022-10-04T10:41:28.359Z,1.70
2022-10-04T10:44:48.957Z,1.63
2022-10-04T10:48:01.701Z,1.60
2022-10-04T10:51:10.843Z,10.63
2022-10-04T10:54:31.332Z,2.00
2022-10-04T10:57:51.495Z,2.33
2022-10-04T11:00:57.340Z,2.10
2022-10-04T11:04:00.781Z,2.60
2022-10-04T11:07:02.978Z,1.70
2022-10-04T11:10:37.144Z,1.47
2022-10-04T11:13:38.705Z,2.73
2022-10-04T11:16:52.397Z,2.07
2022-10-04T11:20:13.374Z,1.90
2022-10-04T11:23:29.103Z,1.97
2022-10-04T11:26:49.253Z,1.90
2022-10-04T11:30:10.083Z,1.47
2022-10-04T11:33:30.613Z,1.80
2022-10-04T11:37:02.796Z,2.37
2022-10-04T11:40:24.791Z,2.20
2022-10-04T11:43:46.709Z,1.83
2022-10-04T11:47:10.018Z,2.87
2022-10-04T11:50:22.829Z,2.87
2022-10-04T11:53:52.921Z,1.87
2022-10-04T11:57:15.015Z,1.97
2022-10-04T12:00:20.885Z,2.00
2022-10-04T12:03:31.887Z,3.83
2022-10-04T12:06:52.336Z,2.13
2022-10-04T12:10:12.964Z,2.00
2022-10-04T12:13:38.082Z,2.40
2022-10-04T12:16:54.993Z,1.73
2022-10-04T12:20:02.712Z,1.90
2022-10-04T12:23:11.235Z,1.90
2022-10-04T12:26:32.359Z,1.20
2022-10-04T12:29:37.101Z,1.30
2022-10-04T12:32:38.652Z,1.50
2022-10-04T12:35:59.175Z,1.57
2022-10-04T12:39:19.612Z,2.13
2022-10-04T12:42:24.339Z,1.20
2022-10-04T12:45:43.955Z,1.50
2022-10-04T12:48:45.543Z,1.43
2022-10-04T12:52:14.185Z,1.60
2022-10-04T12:55:34.765Z,1.90
2022-10-04T12:58:36.447Z,1.20
2022-10-04T13:01:41.237Z,1.40
2022-10-04T13:04:51.441Z,1.40
2022-10-04T13:07:56.031Z,1.70
2022-10-04T13:11:16.241Z,1.30
2022-10-04T13:14:28.180Z,1.60
2022-10-04T13:17:39.400Z,1.40
2022-10-04T13:21:01.364Z,1.40
2022-10-04T13:24:26.249Z,1.40
2022-10-04T13:27:34.182Z,1.53
2022-10-04T13:30:46.292Z,1.37
2022-10-04T13:34:07.023Z,2.10
2022-10-04T13:37:17.744Z,1.77
2022-10-04T13:40:26.298Z,1.50
2022-10-04T13:43:31.426Z,1.60
2022-10-04T13:46:39.294Z,2.90
2022-10-04T13:49:59.633Z,1.50
2022-10-04T13:53:45.336Z,1.43
2022-10-04T13:57:10.254Z,1.40
2022-10-04T14:00:15.040Z,3.30
2022-10-04T14:03:36.176Z,1.37
2022-10-04T14:07:03.013Z,0.87
2022-10-04T14:10:04.587Z,1.27
2022-10-04T14:13:25.070Z,2.53
2022-10-04T14:16:45.538Z,1.17
2022-10-04T14:20:05.649Z,5.13
2022-10-04T14:23:13.200Z,4.17
2022-10-04T14:26:25.100Z,4.43
2022-10-04T14:29:45.239Z,3.33
2022-10-04T14:32:52.042Z,3.30
2022-10-04T14:35:54.380Z,4.13
2022-10-04T14:38:58.850Z,5.27
2022-10-04T14:42:00.469Z,4.90
2022-10-04T14:45:03.108Z,3.53
2022-10-04T14:48:07.796Z,3.77
2022-10-04T14:51:09.445Z,6.00
2022-10-04T14:54:25.695Z,3.10
2022-10-04T14:57:41.660Z,2.77
2022-10-04T15:01:02.242Z,2.70
2022-10-04T15:04:03.883Z,2.90
2022-10-04T15:07:19.131Z,2.07
2022-10-04T15:10:38.212Z,3.07
2022-10-04T15:13:55.713Z,3.30
2022-10-04T15:17:00.102Z,2.90
2022-10-04T15:20:05.631Z,2.63
2022-10-04T15:23:26.788Z,2.47
2022-10-04T15:26:32.360Z,2.97
2022-10-04T15:30:00.367Z,4.70
2022-10-04T15:33:11.798Z,5.13
2022-10-04T15:36:27.461Z,3.47
2022-10-04T15:39:31.555Z,4.87
2022-10-04T15:42:34.652Z,5.07
2022-10-04T15:45:57.262Z,3.67
2022-10-04T15:49:22.113Z,4.00
2022-10-04T15:52:53.042Z,4.90
2022-10-04T15:56:18.192Z,4.00
2022-10-04T15:59:21.307Z,4.40
2022-10-04T16:02:34.414Z,5.33
2022-10-04T16:05:45.240Z,5.07
2022-10-04T16:08:50.154Z,5.00
2022-10-04T16:12:10.703Z,4.70
2022-10-04T16:15:15.402Z,6.03
2022-10-04T16:18:26.391Z,7.10
2022-10-04T16:21:34.271Z,6.70
2022-10-04T16:24:58.136Z,8.93
2022-10-04T16:28:19.709Z,11.10
2022-10-04T16:31:40.575Z,11.27
2022-10-04T16:35:05.600Z,9.03
2022-10-04T16:38:14.392Z,9.73
2022-10-04T16:41:29.295Z,10.73
2022-10-04T16:44:47.685Z,7.63
2022-10-04T16:47:50.715Z,10.80
2022-10-04T16:50:58.569Z,11.67
2022-10-04T16:54:15.171Z,15.17
2022-10-04T16:57:22.439Z,8.03
2022-10-04T17:00:42.159Z,7.20
2022-10-04T17:03:53.087Z,11.13
2022-10-04T17:06:56.899Z,20.23
2022-10-04T17:10:21.068Z,7.53
2022-10-04T17:13:32.227Z,5.63
2022-10-04T17:16:38.753Z,6.43
2022-10-04T17:19:51.693Z,6.10
2022-10-04T17:22:57.565Z,7.90
2022-10-04T17:25:59.176Z,11.83
2022-10-04T17:29:00.852Z,7.73
2022-10-04T17:32:25.891Z,7.63
2022-10-04T17:35:44.199Z,16.23
2022-10-04T17:38:53.043Z,12.80
2022-10-04T17:41:54.729Z,24.23
2022-10-04T17:45:14.863Z,16.23
2022-10-04T17:48:47.767Z,19.07
2022-10-04T17:52:09.938Z,15.07
2022-10-04T17:55:17.226Z,11.83
2022-10-04T17:58:42.748Z,9.67
2022-10-04T18:02:01.786Z,11.73
2022-10-04T18:05:13.192Z,9.27
2022-10-04T18:08:21.595Z,8.70
2022-10-04T18:11:30.568Z,5.47
2022-10-04T18:14:35.209Z,6.70
2022-10-04T18:17:42.530Z,6.00
2022-10-04T18:21:07.774Z,4.70
2022-10-04T18:24:21.984Z,4.43
2022-10-04T18:27:24.881Z,5.47
2022-10-04T18:30:26.610Z,6.10
2022-10-04T18:33:32.125Z,7.40
2022-10-04T18:36:52.017Z,7.90
2022-10-04T18:39:55.787Z,6.50
2022-10-04T18:43:01.728Z,7.10
2022-10-04T18:46:05.636Z,6.37
2022-10-04T18:49:17.879Z,6.47
2022-10-04T18:52:31.014Z,6.73
2022-10-04T18:56:03.487Z,5.83
2022-10-04T18:59:38.467Z,5.97
2022-10-04T19:02:43.324Z,7.60
2022-10-04T19:05:51.583Z,6.07
2022-10-04T19:08:53.861Z,6.33
2022-10-04T19:12:16.663Z,9.20
2022-10-04T19:15:18.446Z,10.57
2022-10-04T19:18:43.768Z,9.40
2022-10-04T19:21:55.008Z,7.63
2022-10-04T19:25:02.605Z,7.10
2022-10-04T19:28:10.247Z,6.37
2022-10-04T19:31:17.175Z,6.63
2022-10-04T19:34:23.899Z,6.17
2022-10-04T19:37:35.338Z,6.73
2022-10-04T19:40:48.618Z,7.00
2022-10-04T19:43:50.344Z,7.43
2022-10-04T19:46:56.129Z,6.77
2022-10-04T19:50:00.690Z,7.40
2022-10-04T19:53:07.316Z,6.40
2022-10-04T19:56:18.156Z,35.03
2022-10-04T19:59:35.880Z,10.73
2022-10-04T20:02:37.633Z,8.60
2022-10-04T20:05:53.298Z,8.90
2022-10-04T20:09:02.317Z,7.70
2022-10-04T20:12:05.426Z,6.70
2022-10-04T20:15:16.164Z,8.03
2022-10-04T20:18:33.384Z,7.90
2022-10-04T20:21:35.395Z,5.97
2022-10-04T20:24:36.940Z,8.40
2022-10-04T20:27:41.556Z,8.10
2022-10-04T20:30:52.164Z,6.30
2022-10-04T20:33:53.884Z,6.80
2022-10-04T20:36:55.627Z,11.53
2022-10-04T20:39:57.300Z,6.80
2022-10-04T20:43:14.346Z,11.73
2022-10-04T20:46:25.879Z,7.03
2022-10-04T20:49:27.550Z,5.53
2022-10-04T20:52:30.858Z,5.03
2022-10-04T20:55:36.753Z,5.07
2022-10-04T20:58:40.451Z,4.63
2022-10-04T21:01:44.827Z,5.63
2022-10-04T21:04:47.746Z,5.40
2022-10-04T21:07:49.286Z,6.97
2022-10-04T21:11:07.610Z,6.57
2022-10-04T21:14:21.481Z,6.40
2022-10-04T21:17:25.888Z,6.23
2022-10-04T21:20:46.183Z,5.73
2022-10-04T21:23:47.890Z,5.20
2022-10-04T21:26:56.895Z,5.27
2022-10-04T21:29:59.077Z,4.80
2022-10-04T21:33:00.660Z,5.50
2022-10-04T21:36:02.702Z,5.30
2022-10-04T21:39:04.244Z,6.27
2022-10-04T21:42:05.908Z,6.10
2022-10-04T21:45:07.795Z,6.00
2022-10-04T21:48:09.449Z,5.50
2022-10-04T21:51:11.049Z,5.87
2022-10-04T21:54:12.780Z,5.90
2022-10-04T21:57:14.356Z,5.67
2022-10-04T22:00:15.945Z,5.70
2022-10-04T22:03:17.545Z,5.63
2022-10-04T22:06:19.195Z,5.40
2022-10-04T22:09:20.869Z,5.67
2022-10-04T22:12:22.435Z,44.17
2022-10-04T22:15:25.134Z,6.17
2022-10-04T22:18:26.809Z,6.93
2022-10-04T22:21:28.399Z,6.53
2022-10-04T22:24:30.053Z,6.20
2022-10-04T22:27:31.673Z,5.97
2022-10-04T22:30:34.372Z,5.97
2022-10-04T22:33:37.141Z,6.30
2022-10-04T22:36:39.446Z,6.13
2022-10-04T22:39:41.118Z,5.83
2022-10-04T22:42:43.138Z,5.80
2022-10-04T22:45:44.944Z,7.43
2022-10-04T22:48:48.058Z,6.73
2022-10-04T22:51:50.722Z,6.80
2022-10-04T22:54:53.035Z,7.00
2022-10-04T22:57:55.161Z,6.50
2022-10-04T23:00:56.702Z,6.40
2022-10-04T23:03:58.466Z,5.93
2022-10-04T23:07:00.105Z,6.13
2022-10-04T23:10:01.747Z,6.20
2022-10-04T23:13:03.330Z,6.37
2022-10-04T23:16:13.905Z,6.30
2022-10-04T23:19:16.225Z,5.77
2022-10-04T23:22:19.524Z,6.20
2022-10-04T23:25:28.537Z,6.20
2022-10-04T23:28:30.204Z,6.23
2022-10-04T23:31:31.953Z,5.67
2022-10-04T23:34:34.712Z,5.80
2022-10-04T23:37:36.444Z,6.47
2022-10-04T23:40:38.132Z,6.20
2022-10-04T23:43:39.746Z,6.37
2022-10-04T23:46:41.575Z,5.63
2022-10-04T23:49:44.018Z,6.30
2022-10-04T23:52:45.622Z,6.10
2022-10-04T23:55:47.227Z,6.67
2022-10-04T23:58:49.999Z,6.07
